Lu Verne, Iowa
Current Conditions -  °F | °C
As of 4:15 PM on Sunday 25 Jan 2015 (Local Time) from KAXA Reporting Station
Overcast Overcast  
Wind Chill: 20°   Ceiling: 1000
Heat Index: 30°   Visibility: 10mi
Dew Point: 27°   Wind: 14mph
Humidity: 86%   Direction: 330°NNW
Pressure: 30.04"   Gusts: NA
Location:  42.91°N, 94.07°W
Report Text: KAXA 252215Z AUTO 33012KT 10SM BKN010 OVC013 M01/M03 A3004 RMK AO2
Loading
Personal Weather Stations






























Interactive Weather Map New forecast layout! Learn more

10-Day Weather Forecast

Advertisements
Track Severe Weather on mobile